Bronnicy, Russia
Current Conditions -  °F | °C
As of 8:30 PM on Sunday 21 Dec 2014 (Local Time) from UUDD Reporting Station
Broken Clouds Broken Clouds  
Wind Chill: 28°   Ceiling: 1600
Heat Index: 34°   Visibility: 6mi
Dew Point: 32°   Wind: 7mph
Humidity: 93%   Direction: 210°SSW
Pressure: 29.5"   Gusts: NA
Location:  55.43°N, 38.27°E
Report Text: UUDD 211730Z 21003MPS 190V250 9999 BKN016 01/M00 Q0999 3229009582290095 NOSIG
Loading
Personal Weather Stations






























Interactive Weather Map New forecast layout! Learn more

10-Day Weather Forecast

Advertisements
Track Severe Weather on mobile